createdAt,value
2019-01-27T00:03:37.484Z,15.73
2019-01-27T00:09:32.493Z,15.48
2019-01-27T00:15:27.516Z,11.95
2019-01-27T00:21:22.471Z,14.49
2019-01-27T00:27:17.507Z,15.96
2019-01-27T00:33:12.537Z,12.93
2019-01-27T00:39:07.563Z,15.26
2019-01-27T00:45:02.489Z,17.14
2019-01-27T00:50:57.506Z,15.65
2019-01-27T00:56:52.523Z,14.33
2019-01-27T01:02:47.478Z,13.04
2019-01-27T01:08:42.495Z,15.43
2019-01-27T01:14:37.498Z,14.17
2019-01-27T01:20:32.510Z,17.15
2019-01-27T01:26:27.497Z,14.25
2019-01-27T01:32:22.514Z,15.45
2019-01-27T01:38:17.522Z,16.09
2019-01-27T01:44:12.544Z,17.5
2019-01-27T01:50:07.512Z,16.52
2019-01-27T01:56:02.510Z,16.75
2019-01-27T02:01:57.560Z,20.17
2019-01-27T02:07:52.512Z,18.34
2019-01-27T02:13:47.532Z,20.53
2019-01-27T02:19:42.524Z,16.65
2019-01-27T02:25:37.525Z,21.3
2019-01-27T02:31:32.542Z,16.74
2019-01-27T02:37:27.569Z,21.96
2019-01-27T02:43:22.539Z,17.31
2019-01-27T02:49:17.590Z,17.89
2019-01-27T02:55:12.536Z,21.13
2019-01-27T03:01:07.556Z,17.93
2019-01-27T03:07:02.546Z,22.65
2019-01-27T03:12:57.533Z,23.7
2019-01-27T03:18:52.556Z,23.73
2019-01-27T03:24:47.551Z,22.19
2019-01-27T03:30:42.566Z,20.85
2019-01-27T03:36:37.580Z,18.31
2019-01-27T03:42:32.573Z,18.1
2019-01-27T03:48:27.570Z,18.58
2019-01-27T03:54:22.576Z,20.92
2019-01-27T04:00:17.572Z,17.92
2019-01-27T04:06:12.581Z,17.62
2019-01-27T04:12:07.564Z,18.48
2019-01-27T04:18:02.568Z,19.02
2019-01-27T04:23:57.583Z,16.8
2019-01-27T04:29:52.592Z,15.31
2019-01-27T04:35:47.608Z,667.82
2019-01-27T04:41:42.598Z,18.8
2019-01-27T04:47:37.625Z,23.51
2019-01-27T04:53:32.583Z,19.92
2019-01-27T04:59:27.598Z,17.84
2019-01-27T05:05:22.635Z,18.89
2019-01-27T05:11:17.621Z,17.1
2019-01-27T05:17:12.606Z,17.17
2019-01-27T05:23:07.608Z,16.12
2019-01-27T05:29:02.613Z,19.89
2019-01-27T05:34:57.658Z,18.06
2019-01-27T05:40:52.606Z,15.63
2019-01-27T05:46:47.626Z,19.2
2019-01-27T05:52:42.602Z,18.64
2019-01-27T05:58:37.627Z,18.07
2019-01-27T06:04:32.634Z,17.48
2019-01-27T06:10:27.621Z,20.04
2019-01-27T06:16:22.623Z,23.47
2019-01-27T06:22:17.617Z,20.26
2019-01-27T06:28:12.608Z,20.29
2019-01-27T06:34:07.616Z,22.57
2019-01-27T06:40:02.647Z,26.61
2019-01-27T06:45:57.643Z,20
2019-01-27T06:51:52.634Z,20.12
2019-01-27T06:57:47.632Z,26.1
2019-01-27T07:03:42.658Z,20.06
2019-01-27T07:09:37.655Z,24.77
2019-01-27T07:15:32.658Z,30.86
2019-01-27T07:21:27.638Z,24.48
2019-01-27T07:27:22.668Z,23.57
2019-01-27T07:33:17.663Z,25.09
2019-01-27T07:39:12.691Z,27.32
2019-01-27T07:45:07.677Z,27.58
2019-01-27T07:51:02.647Z,26.11
2019-01-27T07:56:57.670Z,32.55
2019-01-27T08:02:52.647Z,28.37
2019-01-27T08:08:47.659Z,32.51
2019-01-27T08:14:42.663Z,28.7
2019-01-27T08:20:37.676Z,29.11
2019-01-27T08:26:32.674Z,33.5
2019-01-27T08:32:27.711Z,40.09
2019-01-27T08:38:22.681Z,39.04
2019-01-27T08:44:17.684Z,44.32
2019-01-27T08:50:12.669Z,37.01
2019-01-27T08:56:07.706Z,34.1
2019-01-27T09:02:02.717Z,38.41
2019-01-27T09:07:57.699Z,49.49
2019-01-27T09:13:52.698Z,35.77
2019-01-27T09:19:47.709Z,43.3
2019-01-27T09:25:42.750Z,43.17
2019-01-27T09:31:37.690Z,41.72
2019-01-27T09:37:32.697Z,48.45
2019-01-27T09:43:28.943Z,45.29
2019-01-27T09:49:22.709Z,47.22
2019-01-27T09:55:17.710Z,47.89
2019-01-27T10:01:12.726Z,58.98
2019-01-27T10:07:07.721Z,62.04
2019-01-27T10:13:02.762Z,66.52
2019-01-27T10:18:57.738Z,70.33
2019-01-27T10:24:52.727Z,57.91
2019-01-27T10:30:47.734Z,51.92
2019-01-27T10:36:42.725Z,55.64
2019-01-27T10:42:37.742Z,61.71
2019-01-27T10:48:32.776Z,64.91
2019-01-27T10:54:27.777Z,65.7
2019-01-27T11:00:22.757Z,63.77
2019-01-27T11:06:17.764Z,82.51
2019-01-27T11:12:12.737Z,86.9
2019-01-27T11:18:07.774Z,100.23
2019-01-27T11:24:02.747Z,90.59
2019-01-27T11:29:57.785Z,89.49
2019-01-27T11:35:52.758Z,134.84
2019-01-27T11:41:47.783Z,141.49
2019-01-27T11:47:42.808Z,95.09
2019-01-27T11:53:37.778Z,80.97
2019-01-27T11:59:32.763Z,91.34
2019-01-27T12:05:27.772Z,97.56
2019-01-27T12:11:23.141Z,114.61
2019-01-27T12:17:17.887Z,103.51
2019-01-27T12:23:12.792Z,87.1
2019-01-27T12:29:07.805Z,98.3
2019-01-27T12:35:02.785Z,100.92
2019-01-27T12:40:57.802Z,105.3
2019-01-27T12:46:52.795Z,95.73
2019-01-27T12:52:47.774Z,110.61
2019-01-27T12:58:42.786Z,126.97
2019-01-27T13:04:37.819Z,132.58
2019-01-27T13:10:32.797Z,137.79
2019-01-27T13:16:27.806Z,139.27
2019-01-27T13:22:22.798Z,136.47
2019-01-27T13:28:17.795Z,148.38
2019-01-27T13:34:12.802Z,139.95
2019-01-27T13:40:07.811Z,121.49
2019-01-27T13:46:02.894Z,125.05
2019-01-27T13:51:57.824Z,112.36
2019-01-27T13:57:52.805Z,127.45
2019-01-27T14:03:47.823Z,111.46
2019-01-27T14:09:42.824Z,115.17
2019-01-27T14:15:37.836Z,127.08
2019-01-27T14:21:32.820Z,189.1
2019-01-27T14:27:27.866Z,193.66
2019-01-27T14:33:22.924Z,189.12
2019-01-27T14:39:17.834Z,189.53
2019-01-27T14:45:12.834Z,178.6
2019-01-27T14:51:07.846Z,194.14
2019-01-27T14:57:02.895Z,156.44
2019-01-27T15:02:58.295Z,171.62
2019-01-27T15:08:52.878Z,177.74
2019-01-27T15:14:47.852Z,173.71
2019-01-27T15:20:42.871Z,150.88
2019-01-27T15:26:37.876Z,141.94
2019-01-27T15:32:32.857Z,183.16
2019-01-27T15:38:27.859Z,144.71
2019-01-27T15:44:22.873Z,190.21
2019-01-27T15:50:17.883Z,191.48
2019-01-27T15:56:19.000Z,193.38
2019-01-27T16:02:07.899Z,244.14
2019-01-27T16:08:02.895Z,245.44
2019-01-27T16:13:57.876Z,246.78
2019-01-27T16:19:52.880Z,218.14
2019-01-27T16:25:47.881Z,204.71
2019-01-27T16:31:42.904Z,225.57
2019-01-27T16:37:37.897Z,230.09
2019-01-27T16:43:32.961Z,214.6
2019-01-27T16:49:27.916Z,220.08
2019-01-27T16:55:22.941Z,231.97
2019-01-27T17:01:17.914Z,237.03
2019-01-27T17:07:12.919Z,231.17
2019-01-27T17:13:07.918Z,249.45
2019-01-27T17:19:02.923Z,236.64
2019-01-27T17:24:57.951Z,247.98
2019-01-27T17:30:52.921Z,299.97
2019-01-27T17:36:47.923Z,301.93
2019-01-27T17:42:42.934Z,264.01
2019-01-27T17:48:37.942Z,218.97
2019-01-27T17:54:32.946Z,208.98
2019-01-27T18:00:27.947Z,168.27
2019-01-27T18:06:22.977Z,170.63
2019-01-27T18:12:17.935Z,106.67
2019-01-27T18:18:12.958Z,38.21
2019-01-27T18:24:07.954Z,53.29
2019-01-27T18:30:02.954Z,47.53
2019-01-27T18:35:57.975Z,49.06
2019-01-27T18:41:52.986Z,63.52
2019-01-27T18:47:47.960Z,52.93
2019-01-27T18:53:42.956Z,72.66
2019-01-27T18:59:37.967Z,46.44
2019-01-27T19:05:32.966Z,48.78
2019-01-27T19:11:27.961Z,42.8
2019-01-27T19:17:22.959Z,48.82
2019-01-27T19:23:17.973Z,41.39
2019-01-27T19:29:12.973Z,46.36
2019-01-27T19:35:08.022Z,66.31
2019-01-27T19:41:02.982Z,77.47
2019-01-27T19:46:57.987Z,52.61
2019-01-27T19:52:52.990Z,34.84
2019-01-27T19:58:47.999Z,42.28
2019-01-27T20:10:38.030Z,44.21
2019-01-27T20:10:38.036Z,38.3
2019-01-27T20:16:33.010Z,39.22
2019-01-27T20:22:28.026Z,34.95
2019-01-27T20:28:23.013Z,30.7
2019-01-27T20:34:18.031Z,27.64
2019-01-27T20:40:13.006Z,38.7
2019-01-27T20:46:08.052Z,18.87
2019-01-27T20:52:03.029Z,25.07
2019-01-27T20:57:58.054Z,25.37
2019-01-27T21:03:53.032Z,11.62
2019-01-27T21:09:48.052Z,13.27
2019-01-27T21:15:44.248Z,11.17
2019-01-27T21:21:38.026Z,8.68
2019-01-27T21:27:33.051Z,15.76
2019-01-27T21:33:28.044Z,21.19
2019-01-27T21:39:23.042Z,24.38
2019-01-27T21:45:18.049Z,16.91
2019-01-27T21:51:13.056Z,24.64
2019-01-27T21:57:08.053Z,23.28
2019-01-27T22:03:03.099Z,21.06
2019-01-27T22:08:58.075Z,21.74
2019-01-27T22:14:53.075Z,16.17
2019-01-27T22:20:48.069Z,32.02
2019-01-27T22:26:43.063Z,11.27
2019-01-27T22:32:38.090Z,14.06
2019-01-27T22:38:33.072Z,11.16
2019-01-27T22:44:28.146Z,15.45
2019-01-27T22:50:23.144Z,17.56
2019-01-27T22:56:18.084Z,17.84
2019-01-27T23:02:13.134Z,10.08
2019-01-27T23:08:08.108Z,16.43
2019-01-27T23:14:03.098Z,14.55
2019-01-27T23:19:58.081Z,17.38
2019-01-27T23:25:53.117Z,8.12
2019-01-27T23:31:48.111Z,4.07
2019-01-27T23:37:43.120Z,3.28
2019-01-27T23:43:38.115Z,3.44
2019-01-27T23:49:33.111Z,9.87
2019-01-27T23:55:28.117Z,3.66
